sensor_id;sensor_type;location;lat;lon;timestamp;pressure;altitude;pressure_sealevel;temperature
79053;BMP280;68451;49.510;6.026;2023-08-01T00:01:46;96834.38;;;17.08
79053;BMP280;68451;49.510;6.026;2023-08-01T00:04:11;96719.69;;;16.32
79053;BMP280;68451;49.510;6.026;2023-08-01T00:06:37;96788.34;;;16.73
79053;BMP280;68451;49.510;6.026;2023-08-01T00:09:02;96841.50;;;17.08
79053;BMP280;68451;49.510;6.026;2023-08-01T00:11:28;96826.91;;;16.96
79053;BMP280;68451;49.510;6.026;2023-08-01T00:13:53;96831.91;;;16.98
79053;BMP280;68451;49.510;6.026;2023-08-01T00:16:19;96831.06;;;17.02
79053;BMP280;68451;49.510;6.026;2023-08-01T00:18:44;96824.22;;;17.01
79053;BMP280;68451;49.510;6.026;2023-08-01T00:21:09;96833.88;;;17.06
79053;BMP280;68451;49.510;6.026;2023-08-01T00:23:37;96715.69;;;16.35
79053;BMP280;68451;49.510;6.026;2023-08-01T00:26:02;96755.22;;;16.67
79053;BMP280;68451;49.510;6.026;2023-08-01T00:28:29;96786.63;;;16.96
79053;BMP280;68451;49.510;6.026;2023-08-01T00:31:07;96812.81;;;17.20
79053;BMP280;68451;49.510;6.026;2023-08-01T00:33:36;96618.28;;;16.02
79053;BMP280;68451;49.510;6.026;2023-08-01T00:36:02;96819.84;;;17.24
79053;BMP280;68451;49.510;6.026;2023-08-01T00:38:27;96780.00;;;17.12
79053;BMP280;68451;49.510;6.026;2023-08-01T00:40:53;96790.84;;;17.24
79053;BMP280;68451;49.510;6.026;2023-08-01T00:43:18;96774.91;;;17.16
79053;BMP280;68451;49.510;6.026;2023-08-01T00:45:44;96742.69;;;16.91
79053;BMP280;68451;49.510;6.026;2023-08-01T00:48:10;96796.81;;;17.30
79053;BMP280;68451;49.510;6.026;2023-08-01T00:50:36;96696.66;;;16.70
79053;BMP280;68451;49.510;6.026;2023-08-01T00:53:01;96778.25;;;17.21
79053;BMP280;68451;49.510;6.026;2023-08-01T00:55:29;96768.66;;;17.12
79053;BMP280;68451;49.510;6.026;2023-08-01T00:57:54;96762.44;;;17.21
79053;BMP280;68451;49.510;6.026;2023-08-01T01:00:20;96783.34;;;17.31
79053;BMP280;68451;49.510;6.026;2023-08-01T01:02:45;96767.50;;;17.31
79053;BMP280;68451;49.510;6.026;2023-08-01T01:05:12;96752.16;;;17.33
79053;BMP280;68451;49.510;6.026;2023-08-01T01:07:39;96767.50;;;17.31
79053;BMP280;68451;49.510;6.026;2023-08-01T01:10:05;96709.28;;;17.14
79053;BMP280;68451;49.510;6.026;2023-08-01T01:12:31;96741.53;;;17.25
79053;BMP280;68451;49.510;6.026;2023-08-01T01:14:56;96625.97;;;16.45
79053;BMP280;68451;49.510;6.026;2023-08-01T01:17:21;96710.75;;;17.07
79053;BMP280;68451;49.510;6.026;2023-08-01T01:19:47;96728.06;;;17.13
79053;BMP280;68451;49.510;6.026;2023-08-01T01:22:13;96771.31;;;17.39
79053;BMP280;68451;49.510;6.026;2023-08-01T01:24:40;96678.41;;;16.87
79053;BMP280;68451;49.510;6.026;2023-08-01T01:27:07;96603.81;;;16.32
79053;BMP280;68451;49.510;6.026;2023-08-01T01:29:33;96774.44;;;17.41
79053;BMP280;68451;49.510;6.026;2023-08-01T01:32:00;96759.88;;;17.30
79053;BMP280;68451;49.510;6.026;2023-08-01T01:34:27;96754.88;;;17.28
79053;BMP280;68451;49.510;6.026;2023-08-01T01:36:53;96712.31;;;17.08
79053;BMP280;68451;49.510;6.026;2023-08-01T01:39:18;96632.84;;;16.60
79053;BMP280;68451;49.510;6.026;2023-08-01T01:41:44;96748.75;;;17.33
79053;BMP280;68451;49.510;6.026;2023-08-01T01:44:09;96681.38;;;16.86
79053;BMP280;68451;49.510;6.026;2023-08-01T01:46:35;96578.94;;;16.25
79053;BMP280;68451;49.510;6.026;2023-08-01T01:49:00;96694.25;;;17.01
79053;BMP280;68451;49.510;6.026;2023-08-01T01:51:27;96670.13;;;16.94
79053;BMP280;68451;49.510;6.026;2023-08-01T01:53:53;96698.06;;;17.09
79053;BMP280;68451;49.510;6.026;2023-08-01T01:56:18;96722.69;;;17.18
79053;BMP280;68451;49.510;6.026;2023-08-01T01:58:44;96707.25;;;17.11
79053;BMP280;68451;49.510;6.026;2023-08-01T02:01:09;96668.38;;;16.89
79053;BMP280;68451;49.510;6.026;2023-08-01T02:03:35;96703.72;;;17.16
79053;BMP280;68451;49.510;6.026;2023-08-01T02:06:01;96702.66;;;17.17
79053;BMP280;68451;49.510;6.026;2023-08-01T02:08:29;96679.72;;;17.04
79053;BMP280;68451;49.510;6.026;2023-08-01T02:10:54;96652.38;;;16.86
79053;BMP280;68451;49.510;6.026;2023-08-01T02:13:23;96680.97;;;16.92
79053;BMP280;68451;49.510;6.026;2023-08-01T02:15:49;96625.16;;;16.63
79053;BMP280;68451;49.510;6.026;2023-08-01T02:18:14;96676.88;;;16.86
79053;BMP280;68451;49.510;6.026;2023-08-01T02:20:40;96687.22;;;16.96
79053;BMP280;68451;49.510;6.026;2023-08-01T02:23:05;96593.09;;;16.42
79053;BMP280;68451;49.510;6.026;2023-08-01T02:25:31;96670.63;;;16.96
79053;BMP280;68451;49.510;6.026;2023-08-01T02:27:56;96502.56;;;15.97
79053;BMP280;68451;49.510;6.026;2023-08-01T02:30:22;96594.38;;;16.45
79053;BMP280;68451;49.510;6.026;2023-08-01T02:32:47;96677.44;;;16.83
79053;BMP280;68451;49.510;6.026;2023-08-01T02:35:13;96645.53;;;16.71
79053;BMP280;68451;49.510;6.026;2023-08-01T02:37:38;96667.50;;;16.80
79053;BMP280;68451;49.510;6.026;2023-08-01T02:40:04;96669.66;;;16.78
79053;BMP280;68451;49.510;6.026;2023-08-01T02:42:32;96623.38;;;16.59
79053;BMP280;68451;49.510;6.026;2023-08-01T02:44:58;96660.38;;;16.81
79053;BMP280;68451;49.510;6.026;2023-08-01T02:47:23;96651.88;;;16.70
79053;BMP280;68451;49.510;6.026;2023-08-01T02:49:49;96624.16;;;16.59
79053;BMP280;68451;49.510;6.026;2023-08-01T02:52:14;96636.06;;;16.70
79053;BMP280;68451;49.510;6.026;2023-08-01T02:54:40;96611.78;;;16.60
79053;BMP280;68451;49.510;6.026;2023-08-01T02:57:05;96643.50;;;16.68
79053;BMP280;68451;49.510;6.026;2023-08-01T02:59:31;96649.56;;;16.82
79053;BMP280;68451;49.510;6.026;2023-08-01T03:01:59;96634.22;;;16.71
79053;BMP280;68451;49.510;6.026;2023-08-01T03:04:24;96640.56;;;16.83
79053;BMP280;68451;49.510;6.026;2023-08-01T03:06:50;96606.78;;;16.58
79053;BMP280;68451;49.510;6.026;2023-08-01T03:09:15;96476.41;;;15.74
79053;BMP280;68451;49.510;6.026;2023-08-01T03:11:41;96651.41;;;16.82
79053;BMP280;68451;49.510;6.026;2023-08-01T03:14:06;96609.00;;;16.51
79053;BMP280;68451;49.510;6.026;2023-08-01T03:16:32;96653.06;;;16.78
79053;BMP280;68451;49.510;6.026;2023-08-01T03:18:57;96658.34;;;16.78
79053;BMP280;68451;49.510;6.026;2023-08-01T03:21:25;96480.50;;;15.66
79053;BMP280;68451;49.510;6.026;2023-08-01T03:23:51;96622.69;;;16.67
79053;BMP280;68451;49.510;6.026;2023-08-01T03:26:17;96615.19;;;16.60
79053;BMP280;68451;49.510;6.026;2023-08-01T03:28:43;96614.09;;;16.61
79053;BMP280;68451;49.510;6.026;2023-08-01T03:31:09;96549.75;;;16.21
79053;BMP280;68451;49.510;6.026;2023-08-01T03:33:34;96618.50;;;16.66
79053;BMP280;68451;49.510;6.026;2023-08-01T03:36:00;96641.84;;;16.86
79053;BMP280;68451;49.510;6.026;2023-08-01T03:38:25;96379.28;;;15.17
79053;BMP280;68451;49.510;6.026;2023-08-01T03:40:51;96599.56;;;16.64
79053;BMP280;68451;49.510;6.026;2023-08-01T03:43:16;96597.91;;;16.68
79053;BMP280;68451;49.510;6.026;2023-08-01T03:45:42;96625.94;;;16.77
79053;BMP280;68451;49.510;6.026;2023-08-01T03:48:07;96567.06;;;16.41
79053;BMP280;68451;49.510;6.026;2023-08-01T03:50:33;96619.78;;;16.68
79053;BMP280;68451;49.510;6.026;2023-08-01T03:52:58;96616.75;;;16.61
79053;BMP280;68451;49.510;6.026;2023-08-01T03:55:24;96654.50;;;16.84
79053;BMP280;68451;49.510;6.026;2023-08-01T03:57:49;96623.47;;;16.67
79053;BMP280;68451;49.510;6.026;2023-08-01T04:00:15;96644.94;;;16.74
79053;BMP280;68451;49.510;6.026;2023-08-01T04:02:43;96673.75;;;16.84
79053;BMP280;68451;49.510;6.026;2023-08-01T04:05:09;96612.63;;;16.41
79053;BMP280;68451;49.510;6.026;2023-08-01T04:07:37;96631.00;;;16.60
79053;BMP280;68451;49.510;6.026;2023-08-01T04:10:03;96658.13;;;16.74
79053;BMP280;68451;49.510;6.026;2023-08-01T04:12:32;96652.84;;;16.74
79053;BMP280;68451;49.510;6.026;2023-08-01T04:14:58;96660.88;;;16.69
79053;BMP280;68451;49.510;6.026;2023-08-01T04:17:24;96665.78;;;16.57
79053;BMP280;68451;49.510;6.026;2023-08-01T04:19:49;96688.09;;;16.78
79053;BMP280;68451;49.510;6.026;2023-08-01T04:22:15;96681.94;;;16.69
79053;BMP280;68451;49.510;6.026;2023-08-01T04:24:40;96541.91;;;15.75
79053;BMP280;68451;49.510;6.026;2023-08-01T04:27:06;96628.09;;;16.29
79053;BMP280;68451;49.510;6.026;2023-08-01T04:29:32;96655.00;;;16.59
79053;BMP280;68451;49.510;6.026;2023-08-01T04:31:57;96413.53;;;15.12
79053;BMP280;68451;49.510;6.026;2023-08-01T04:34:23;96658.41;;;16.59
79053;BMP280;68451;49.510;6.026;2023-08-01T04:36:48;96688.66;;;16.62
79053;BMP280;68451;49.510;6.026;2023-08-01T04:39:14;96634.13;;;16.30
79053;BMP280;68451;49.510;6.026;2023-08-01T04:41:39;96670.53;;;16.74
79053;BMP280;68451;49.510;6.026;2023-08-01T04:44:05;96647.56;;;16.61
79053;BMP280;68451;49.510;6.026;2023-08-01T04:46:31;96650.34;;;16.69
79053;BMP280;68451;49.510;6.026;2023-08-01T04:48:57;96659.22;;;16.73
79053;BMP280;68451;49.510;6.026;2023-08-01T04:51:23;96651.56;;;16.58
79053;BMP280;68451;49.510;6.026;2023-08-01T04:53:48;96677.16;;;16.71
79053;BMP280;68451;49.510;6.026;2023-08-01T04:56:14;96691.72;;;16.69
79053;BMP280;68451;49.510;6.026;2023-08-01T04:58:39;96691.91;;;16.72
79053;BMP280;68451;49.510;6.026;2023-08-01T05:01:05;96713.75;;;16.73
79053;BMP280;68451;49.510;6.026;2023-08-01T05:03:31;96584.31;;;15.87
79053;BMP280;68451;49.510;6.026;2023-08-01T05:05:56;96670.94;;;16.48
79053;BMP280;68451;49.510;6.026;2023-08-01T05:08:22;96712.19;;;16.72
79053;BMP280;68451;49.510;6.026;2023-08-01T05:10:47;96699.56;;;16.55
79053;BMP280;68451;49.510;6.026;2023-08-01T05:13:13;96707.69;;;16.59
79053;BMP280;68451;49.510;6.026;2023-08-01T05:15:38;96730.63;;;16.72
79053;BMP280;68451;49.510;6.026;2023-08-01T05:18:03;96693.59;;;16.49
79053;BMP280;68451;49.510;6.026;2023-08-01T05:20:29;96687.13;;;16.42
79053;BMP280;68451;49.510;6.026;2023-08-01T05:22:57;96741.38;;;16.75
79053;BMP280;68451;49.510;6.026;2023-08-01T05:25:23;96623.06;;;16.00
79053;BMP280;68451;49.510;6.026;2023-08-01T05:27:48;96742.56;;;16.69
79053;BMP280;68451;49.510;6.026;2023-08-01T05:30:14;96561.25;;;15.47
79053;BMP280;68451;49.510;6.026;2023-08-01T05:32:39;96759.72;;;16.67
79053;BMP280;68451;49.510;6.026;2023-08-01T05:35:06;96719.59;;;16.37
79053;BMP280;68451;49.510;6.026;2023-08-01T05:37:32;96709.34;;;16.36
79053;BMP280;68451;49.510;6.026;2023-08-01T05:39:57;96747.00;;;16.36
79053;BMP280;68451;49.510;6.026;2023-08-01T05:42:23;96745.59;;;16.25
79053;BMP280;68451;49.510;6.026;2023-08-01T05:44:48;96765.59;;;16.26
79053;BMP280;68451;49.510;6.026;2023-08-01T05:47:14;96765.44;;;16.18
79053;BMP280;68451;49.510;6.026;2023-08-01T05:49:40;96751.03;;;16.15
79053;BMP280;68451;49.510;6.026;2023-08-01T05:52:07;96768.22;;;16.07
79053;BMP280;68451;49.510;6.026;2023-08-01T05:54:32;96764.41;;;16.00
79053;BMP280;68451;49.510;6.026;2023-08-01T05:56:58;96764.25;;;15.91
79053;BMP280;68451;49.510;6.026;2023-08-01T05:59:23;96780.97;;;16.00
79053;BMP280;68451;49.510;6.026;2023-08-01T06:01:49;96784.13;;;16.02
79053;BMP280;68451;49.510;6.026;2023-08-01T06:04:15;96697.19;;;15.51
79053;BMP280;68451;49.510;6.026;2023-08-01T06:06:40;96766.75;;;16.01
79053;BMP280;68451;49.510;6.026;2023-08-01T06:09:06;96743.81;;;16.21
79053;BMP280;68451;49.510;6.026;2023-08-01T06:11:32;96636.13;;;16.38
79053;BMP280;68451;49.510;6.026;2023-08-01T06:13:59;96789.44;;;18.31
79053;BMP280;68451;49.510;6.026;2023-08-01T06:16:24;96773.41;;;19.34
79053;BMP280;68451;49.510;6.026;2023-08-01T06:18:50;96793.28;;;20.53
79053;BMP280;68451;49.510;6.026;2023-08-01T06:21:15;96817.25;;;21.46
79053;BMP280;68451;49.510;6.026;2023-08-01T06:23:41;96637.03;;;20.86
79053;BMP280;68451;49.510;6.026;2023-08-01T06:26:06;96816.19;;;22.26
79053;BMP280;68451;49.510;6.026;2023-08-01T06:28:32;96828.88;;;22.42
79053;BMP280;68451;49.510;6.026;2023-08-01T06:30:57;96811.88;;;22.55
79053;BMP280;68451;49.510;6.026;2023-08-01T06:33:23;96816.66;;;23.15
79053;BMP280;68451;49.510;6.026;2023-08-01T06:35:49;96804.81;;;23.37
79053;BMP280;68451;49.510;6.026;2023-08-01T06:38:14;96814.81;;;22.95
79053;BMP280;68451;49.510;6.026;2023-08-01T06:40:40;96842.59;;;22.31
79053;BMP280;68451;49.510;6.026;2023-08-01T06:43:05;96722.84;;;20.90
79053;BMP280;68451;49.510;6.026;2023-08-01T06:45:31;96812.09;;;20.86
79053;BMP280;68451;49.510;6.026;2023-08-01T06:47:56;96831.00;;;20.67
79053;BMP280;68451;49.510;6.026;2023-08-01T06:50:21;96829.88;;;20.25
79053;BMP280;68451;49.510;6.026;2023-08-01T06:52:47;96827.47;;;19.81
79053;BMP280;68451;49.510;6.026;2023-08-01T06:55:12;96718.22;;;18.70
79053;BMP280;68451;49.510;6.026;2023-08-01T06:57:38;96874.09;;;19.99
79053;BMP280;68451;49.510;6.026;2023-08-01T07:00:04;96856.44;;;20.42
79053;BMP280;68451;49.510;6.026;2023-08-01T07:02:29;96841.88;;;21.00
79053;BMP280;68451;49.510;6.026;2023-08-01T07:04:55;96832.50;;;21.96
79053;BMP280;68451;49.510;6.026;2023-08-01T07:07:20;96833.81;;;22.31
79053;BMP280;68451;49.510;6.026;2023-08-01T07:09:46;96671.75;;;21.39
79053;BMP280;68451;49.510;6.026;2023-08-01T07:12:11;96831.59;;;21.83
79053;BMP280;68451;49.510;6.026;2023-08-01T07:14:37;96885.38;;;21.80
79053;BMP280;68451;49.510;6.026;2023-08-01T07:17:02;96738.41;;;20.36
79053;BMP280;68451;49.510;6.026;2023-08-01T07:19:27;96872.66;;;20.84
79053;BMP280;68451;49.510;6.026;2023-08-01T07:21:53;96890.63;;;21.88
79053;BMP280;68451;49.510;6.026;2023-08-01T07:24:18;96890.63;;;22.47
79053;BMP280;68451;49.510;6.026;2023-08-01T07:26:44;96872.13;;;23.25
79053;BMP280;68451;49.510;6.026;2023-08-01T07:29:09;96873.75;;;23.50
79053;BMP280;68451;49.510;6.026;2023-08-01T07:31:37;96884.69;;;24.18
79053;BMP280;68451;49.510;6.026;2023-08-01T07:34:02;96781.47;;;24.06
79053;BMP280;68451;49.510;6.026;2023-08-01T07:36:28;96874.31;;;24.81
79053;BMP280;68451;49.510;6.026;2023-08-01T07:38:53;96885.44;;;24.71
79053;BMP280;68451;49.510;6.026;2023-08-01T07:41:21;96883.06;;;24.53
79053;BMP280;68451;49.510;6.026;2023-08-01T07:43:46;96892.66;;;23.94
79053;BMP280;68451;49.510;6.026;2023-08-01T07:46:12;96889.56;;;23.35
79053;BMP280;68451;49.510;6.026;2023-08-01T07:48:38;96899.72;;;22.88
79053;BMP280;68451;49.510;6.026;2023-08-01T07:51:03;96910.75;;;22.27
79053;BMP280;68451;49.510;6.026;2023-08-01T07:53:30;96885.25;;;21.68
79053;BMP280;68451;49.510;6.026;2023-08-01T07:55:56;96908.81;;;21.78
79053;BMP280;68451;49.510;6.026;2023-08-01T07:58:22;96895.81;;;22.64
79053;BMP280;68451;49.510;6.026;2023-08-01T08:00:48;96886.19;;;23.46
79053;BMP280;68451;49.510;6.026;2023-08-01T08:03:13;96884.47;;;23.42
79053;BMP280;68451;49.510;6.026;2023-08-01T08:05:39;96909.97;;;23.76
79053;BMP280;68451;49.510;6.026;2023-08-01T08:08:05;96908.19;;;23.55
79053;BMP280;68451;49.510;6.026;2023-08-01T08:10:31;96913.69;;;23.17
79053;BMP280;68451;49.510;6.026;2023-08-01T08:12:56;96901.44;;;23.37
79053;BMP280;68451;49.510;6.026;2023-08-01T08:15:22;96916.63;;;23.25
79053;BMP280;68451;49.510;6.026;2023-08-01T08:17:49;96907.97;;;22.74
79053;BMP280;68451;49.510;6.026;2023-08-01T08:20:14;96901.88;;;22.23
79053;BMP280;68451;49.510;6.026;2023-08-01T08:22:40;96915.66;;;21.79
79053;BMP280;68451;49.510;6.026;2023-08-01T08:25:05;96884.66;;;21.16
79053;BMP280;68451;49.510;6.026;2023-08-01T08:27:31;96888.72;;;20.79
79053;BMP280;68451;49.510;6.026;2023-08-01T08:29:57;96916.31;;;20.86
79053;BMP280;68451;49.510;6.026;2023-08-01T08:32:22;96915.69;;;20.81
79053;BMP280;68451;49.510;6.026;2023-08-01T08:34:48;96903.84;;;20.78
79053;BMP280;68451;49.510;6.026;2023-08-01T08:37:13;96899.78;;;20.64
79053;BMP280;68451;49.510;6.026;2023-08-01T08:39:38;96716.44;;;19.28
79053;BMP280;68451;49.510;6.026;2023-08-01T08:42:04;96917.84;;;20.36
79053;BMP280;68451;49.510;6.026;2023-08-01T08:44:30;96908.59;;;20.25
79053;BMP280;68451;49.510;6.026;2023-08-01T08:47:03;96890.13;;;19.94
79053;BMP280;68451;49.510;6.026;2023-08-01T08:49:31;96794.91;;;19.32
79053;BMP280;68451;49.510;6.026;2023-08-01T08:51:57;96910.06;;;19.91
79053;BMP280;68451;49.510;6.026;2023-08-01T08:54:23;96916.09;;;19.83
79053;BMP280;68451;49.510;6.026;2023-08-01T08:56:50;96920.19;;;19.89
79053;BMP280;68451;49.510;6.026;2023-08-01T08:59:16;96938.72;;;19.89
79053;BMP280;68451;49.510;6.026;2023-08-01T09:01:41;96936.13;;;19.98
79053;BMP280;68451;49.510;6.026;2023-08-01T09:04:07;96905.66;;;20.26
79053;BMP280;68451;49.510;6.026;2023-08-01T09:06:37;96875.84;;;20.21
79053;BMP280;68451;49.510;6.026;2023-08-01T09:09:13;96941.41;;;20.54
79053;BMP280;68451;49.510;6.026;2023-08-01T09:11:42;96948.28;;;20.55
79053;BMP280;68451;49.510;6.026;2023-08-01T09:14:07;96863.66;;;19.94
79053;BMP280;68451;49.510;6.026;2023-08-01T09:16:33;96935.78;;;20.39
79053;BMP280;68451;49.510;6.026;2023-08-01T09:18:59;96846.78;;;19.81
79053;BMP280;68451;49.510;6.026;2023-08-01T09:21:24;96908.19;;;20.40
79053;BMP280;68451;49.510;6.026;2023-08-01T09:23:50;96951.28;;;21.14
79053;BMP280;68451;49.510;6.026;2023-08-01T09:26:19;96947.56;;;21.79
79053;BMP280;68451;49.510;6.026;2023-08-01T09:28:55;96902.91;;;21.72
79053;BMP280;68451;49.510;6.026;2023-08-01T09:31:29;96931.13;;;21.94
79053;BMP280;68451;49.510;6.026;2023-08-01T09:33:55;96936.75;;;21.84
79053;BMP280;68451;49.510;6.026;2023-08-01T09:36:21;96940.50;;;21.83
79053;BMP280;68451;49.510;6.026;2023-08-01T09:38:51;96919.09;;;21.79
79053;BMP280;68451;49.510;6.026;2023-08-01T09:41:17;96938.56;;;22.39
79053;BMP280;68451;49.510;6.026;2023-08-01T09:43:45;96956.38;;;23.09
79053;BMP280;68451;49.510;6.026;2023-08-01T09:46:11;96962.03;;;23.61
79053;BMP280;68451;49.510;6.026;2023-08-01T09:48:37;96959.66;;;24.04
79053;BMP280;68451;49.510;6.026;2023-08-01T09:51:16;96862.59;;;23.36
79053;BMP280;68451;49.510;6.026;2023-08-01T09:53:54;96889.31;;;23.15
79053;BMP280;68451;49.510;6.026;2023-08-01T09:56:22;96919.25;;;22.92
79053;BMP280;68451;49.510;6.026;2023-08-01T09:58:48;96891.13;;;22.20
79053;BMP280;68451;49.510;6.026;2023-08-01T10:01:15;96968.78;;;22.55
79053;BMP280;68451;49.510;6.026;2023-08-01T10:03:48;96977.22;;;22.86
79053;BMP280;68451;49.510;6.026;2023-08-01T10:06:17;96970.19;;;23.23
79053;BMP280;68451;49.510;6.026;2023-08-01T10:08:44;96877.75;;;23.11
79053;BMP280;68451;49.510;6.026;2023-08-01T10:11:12;96955.53;;;24.07
79053;BMP280;68451;49.510;6.026;2023-08-01T10:13:38;96939.88;;;24.30
79053;BMP280;68451;49.510;6.026;2023-08-01T10:16:05;96937.63;;;24.56
79053;BMP280;68451;49.510;6.026;2023-08-01T10:18:31;96949.91;;;24.97
79053;BMP280;68451;49.510;6.026;2023-08-01T10:20:58;96937.56;;;25.20
79053;BMP280;68451;49.510;6.026;2023-08-01T10:23:24;96884.09;;;24.77
79053;BMP280;68451;49.510;6.026;2023-08-01T10:25:50;96876.06;;;24.49
79053;BMP280;68451;49.510;6.026;2023-08-01T10:28:16;96930.94;;;24.62
79053;BMP280;68451;49.510;6.026;2023-08-01T10:30:41;96973.78;;;24.53
79053;BMP280;68451;49.510;6.026;2023-08-01T10:33:07;96959.56;;;24.25
79053;BMP280;68451;49.510;6.026;2023-08-01T10:35:39;96942.19;;;23.95
79053;BMP280;68451;49.510;6.026;2023-08-01T10:38:10;96957.34;;;23.58
79053;BMP280;68451;49.510;6.026;2023-08-01T10:40:41;96883.06;;;22.79
79053;BMP280;68451;49.510;6.026;2023-08-01T10:45:45;96894.91;;;22.10
79053;BMP280;68451;49.510;6.026;2023-08-01T10:48:11;96988.75;;;22.40
79053;BMP280;68451;49.510;6.026;2023-08-01T10:50:37;96999.22;;;22.07
79053;BMP280;68451;49.510;6.026;2023-08-01T10:53:05;96909.13;;;21.04
79053;BMP280;68451;49.510;6.026;2023-08-01T10:58:02;96998.41;;;21.34
79053;BMP280;68451;49.510;6.026;2023-08-01T11:00:28;96991.38;;;21.38
79053;BMP280;68451;49.510;6.026;2023-08-01T11:02:53;96992.66;;;21.32
79053;BMP280;68451;49.510;6.026;2023-08-01T11:05:18;97000.94;;;21.22
79053;BMP280;68451;49.510;6.026;2023-08-01T11:07:52;96989.88;;;21.20
79053;BMP280;68451;49.510;6.026;2023-08-01T11:10:18;96999.84;;;21.32
79053;BMP280;68451;49.510;6.026;2023-08-01T11:12:43;96999.19;;;21.43
79053;BMP280;68451;49.510;6.026;2023-08-01T11:15:12;97005.75;;;21.55
79053;BMP280;68451;49.510;6.026;2023-08-01T11:17:38;96996.94;;;21.80
79053;BMP280;68451;49.510;6.026;2023-08-01T11:20:05;96995.91;;;22.10
79053;BMP280;68451;49.510;6.026;2023-08-01T11:22:31;96983.19;;;22.24
79053;BMP280;68451;49.510;6.026;2023-08-01T11:24:56;96992.19;;;22.41
79053;BMP280;68451;49.510;6.026;2023-08-01T11:27:22;96975.72;;;22.47
79053;BMP280;68451;49.510;6.026;2023-08-01T11:29:47;96992.19;;;22.41
79053;BMP280;68451;49.510;6.026;2023-08-01T11:32:12;96987.38;;;22.34
79053;BMP280;68451;49.510;6.026;2023-08-01T11:34:41;96989.03;;;22.18
79053;BMP280;68451;49.510;6.026;2023-08-01T11:37:09;96998.00;;;22.05
79053;BMP280;68451;49.510;6.026;2023-08-01T11:39:35;96989.97;;;22.13
79053;BMP280;68451;49.510;6.026;2023-08-01T11:42:00;96987.41;;;22.25
79053;BMP280;68451;49.510;6.026;2023-08-01T11:44:25;96991.78;;;22.30
79053;BMP280;68451;49.510;6.026;2023-08-01T11:46:51;96982.09;;;22.25
79053;BMP280;68451;49.510;6.026;2023-08-01T11:49:16;96994.44;;;22.30
79053;BMP280;68451;49.510;6.026;2023-08-01T11:51:43;96984.72;;;22.34
79053;BMP280;68451;49.510;6.026;2023-08-01T11:54:09;96977.53;;;22.35
79053;BMP280;68451;49.510;6.026;2023-08-01T11:56:36;96992.69;;;22.34
79053;BMP280;68451;49.510;6.026;2023-08-01T11:59:07;96990.47;;;22.45
79053;BMP280;68451;49.510;6.026;2023-08-01T12:01:37;96982.25;;;22.58
79053;BMP280;68451;49.510;6.026;2023-08-01T12:04:02;96987.50;;;22.67
79053;BMP280;68451;49.510;6.026;2023-08-01T12:06:30;96991.84;;;22.80
79053;BMP280;68451;49.510;6.026;2023-08-01T12:09:05;96991.84;;;22.80
79053;BMP280;68451;49.510;6.026;2023-08-01T12:11:30;96987.28;;;22.81
79053;BMP280;68451;49.510;6.026;2023-08-01T12:14:07;96990.06;;;22.84
79053;BMP280;68451;49.510;6.026;2023-08-01T12:16:36;96989.66;;;22.73
79053;BMP280;68451;49.510;6.026;2023-08-01T12:19:01;96996.38;;;22.80
79053;BMP280;68451;49.510;6.026;2023-08-01T12:21:27;97009.28;;;22.60
79053;BMP280;68451;49.510;6.026;2023-08-01T12:23:53;97001.66;;;22.50
79053;BMP280;68451;49.510;6.026;2023-08-01T12:26:18;96995.59;;;22.50
79053;BMP280;68451;49.510;6.026;2023-08-01T12:28:43;97001.53;;;22.47
79053;BMP280;68451;49.510;6.026;2023-08-01T12:31:09;96991.19;;;22.54
79053;BMP280;68451;49.510;6.026;2023-08-01T12:33:34;97004.16;;;22.55
79053;BMP280;68451;49.510;6.026;2023-08-01T12:35:59;96990.28;;;22.50
79053;BMP280;68451;49.510;6.026;2023-08-01T12:38:25;96991.69;;;22.47
79053;BMP280;68451;49.510;6.026;2023-08-01T12:40:51;97000.50;;;22.39
79053;BMP280;68451;49.510;6.026;2023-08-01T12:43:16;97003.06;;;22.27
79053;BMP280;68451;49.510;6.026;2023-08-01T12:45:42;96995.75;;;22.15
79053;BMP280;68451;49.510;6.026;2023-08-01T12:48:07;96991.06;;;22.12
79053;BMP280;68451;49.510;6.026;2023-08-01T12:50:32;96991.22;;;22.16
79053;BMP280;68451;49.510;6.026;2023-08-01T12:52:58;96992.78;;;22.17
79053;BMP280;68451;49.510;6.026;2023-08-01T12:55:23;96985.88;;;22.16
79053;BMP280;68451;49.510;6.026;2023-08-01T12:57:48;96991.06;;;22.12
79053;BMP280;68451;49.510;6.026;2023-08-01T13:00:14;96994.84;;;22.03
79053;BMP280;68451;49.510;6.026;2023-08-01T13:02:39;96993.31;;;21.93
79053;BMP280;68451;49.510;6.026;2023-08-01T13:05:05;96996.16;;;21.79
79053;BMP280;68451;49.510;6.026;2023-08-01T13:07:30;97002.28;;;21.71
79053;BMP280;68451;49.510;6.026;2023-08-01T13:09:59;97021.84;;;21.50
79053;BMP280;68451;49.510;6.026;2023-08-01T13:12:25;97029.59;;;21.03
79053;BMP280;68451;49.510;6.026;2023-08-01T13:14:50;97030.97;;;20.58
79053;BMP280;68451;49.510;6.026;2023-08-01T13:17:15;97029.41;;;20.26
79053;BMP280;68451;49.510;6.026;2023-08-01T13:19:40;97027.28;;;20.05
79053;BMP280;68451;49.510;6.026;2023-08-01T13:22:06;97029.72;;;19.93
79053;BMP280;68451;49.510;6.026;2023-08-01T13:24:31;97027.22;;;19.88
79053;BMP280;68451;49.510;6.026;2023-08-01T13:26:57;97031.38;;;19.81
79053;BMP280;68451;49.510;6.026;2023-08-01T13:29:23;97046.25;;;19.68
79053;BMP280;68451;49.510;6.026;2023-08-01T13:31:48;97048.59;;;19.47
79053;BMP280;68451;49.510;6.026;2023-08-01T13:34:14;97053.00;;;19.38
79053;BMP280;68451;49.510;6.026;2023-08-01T13:36:39;97060.47;;;19.36
79053;BMP280;68451;49.510;6.026;2023-08-01T13:39:04;97057.22;;;19.39
79053;BMP280;68451;49.510;6.026;2023-08-01T13:41:30;97059.72;;;19.58
79053;BMP280;68451;49.510;6.026;2023-08-01T13:43:56;97060.50;;;19.81
79053;BMP280;68451;49.510;6.026;2023-08-01T13:46:22;97061.97;;;19.95
79053;BMP280;68451;49.510;6.026;2023-08-01T13:48:47;97056.25;;;20.02
79053;BMP280;68451;49.510;6.026;2023-08-01T13:51:13;97053.00;;;20.05
79053;BMP280;68451;49.510;6.026;2023-08-01T13:53:38;97051.47;;;20.04
79053;BMP280;68451;49.510;6.026;2023-08-01T13:56:12;97042.88;;;20.07
79053;BMP280;68451;49.510;6.026;2023-08-01T13:58:38;97039.16;;;20.08
79053;BMP280;68451;49.510;6.026;2023-08-01T14:01:04;97024.22;;;20.12
79053;BMP280;68451;49.510;6.026;2023-08-01T14:03:38;97032.50;;;20.19
79053;BMP280;68451;49.510;6.026;2023-08-01T14:06:13;97030.84;;;20.32
79053;BMP280;68451;49.510;6.026;2023-08-01T14:08:40;97024.06;;;20.48